Time;durP1;ratioP1;P1;durP2;ratioP2;P2;SDS_P1;SDS_P2;PMS_P1;PMS_P2;Temp;Humidity;BMP_temperature;BMP_pressure;BME280_temperature;BME280_humidity;BME280_pressure;Samples;Min_cycle;Max_cycle;Signal;HPM_P1;HPM_P2
2022/06/19 00:01:07;;;;;;;4.88;2.75;;;;;;;;;;5079671;28;20641;-56
2022/06/19 00:03:36;;;;;;;6.10;2.58;;;;;;;;;;5079419;28;20216;-56
2022/06/19 00:06:05;;;;;;;4.07;3.03;;;;;;;;;;5079225;28;20200;-56
2022/06/19 00:08:33;;;;;;;6.55;3.10;;;;;;;;;;5078743;28;20201;-56
2022/06/19 00:11:01;;;;;;;4.47;2.53;;;;;;;;;;5080032;28;20236;-56
2022/06/19 00:13:29;;;;;;;5.35;2.78;;;;;;;;;;5078915;28;20235;-56
2022/06/19 00:15:57;;;;;;;5.50;2.63;;;;;;;;;;5079450;28;20235;-56
2022/06/19 00:18:24;;;;;;;3.78;2.88;;;;;;;;;;5079499;28;20200;-56
2022/06/19 00:20:52;;;;;;;4.93;2.95;;;;;;;;;;5079983;28;20268;-56
2022/06/19 00:23:21;;;;;;;5.50;3.10;;;;;;;;;;5079710;28;20265;-56
2022/06/19 00:25:48;;;;;;;5.85;3.00;;;;;;;;;;5079496;28;20204;-56
2022/06/19 00:28:16;;;;;;;3.90;3.03;;;;;;;;;;5079267;28;20200;-56
2022/06/19 00:30:43;;;;;;;7.63;2.83;;;;;;;;;;5080184;28;20281;-56
2022/06/19 00:33:11;;;;;;;6.10;3.00;;;;;;;;;;5079775;28;20239;-56
2022/06/19 00:35:38;;;;;;;4.75;2.90;;;;;;;;;;5078888;28;20239;-56
2022/06/19 00:38:06;;;;;;;6.25;3.17;;;;;;;;;;5078810;28;20281;-56
2022/06/19 00:40:35;;;;;;;4.65;2.80;;;;;;;;;;5078855;28;20688;-56
2022/06/19 00:43:03;;;;;;;6.78;2.80;;;;;;;;;;5078949;28;20214;-56
2022/06/19 00:45:35;;;;;;;5.78;2.97;;;;;;;;;;5079168;28;20204;-56
2022/06/19 00:48:04;;;;;;;8.55;2.78;;;;;;;;;;5078206;28;20273;-56
2022/06/19 00:50:33;;;;;;;3.28;2.97;;;;;;;;;;5078937;28;20595;-56
2022/06/19 00:53:01;;;;;;;5.47;3.25;;;;;;;;;;5079641;28;20713;-56
2022/06/19 00:55:30;;;;;;;3.95;2.85;;;;;;;;;;5079242;28;20200;-55
2022/06/19 00:58:01;;;;;;;6.88;3.25;;;;;;;;;;5079335;28;20295;-56
2022/06/19 01:00:30;;;;;;;6.55;3.13;;;;;;;;;;5079641;28;20212;-56
2022/06/19 01:02:59;;;;;;;6.75;3.15;;;;;;;;;;5079013;28;20244;-56
2022/06/19 01:05:27;;;;;;;6.60;3.08;;;;;;;;;;5079349;28;20205;-56
2022/06/19 01:07:56;;;;;;;6.43;3.13;;;;;;;;;;5079323;28;20246;-56
2022/06/19 01:10:23;;;;;;;4.97;3.00;;;;;;;;;;5079467;28;20204;-56
2022/06/19 01:12:51;;;;;;;5.10;2.97;;;;;;;;;;5079183;28;20266;-56
2022/06/19 01:15:20;;;;;;;5.00;3.00;;;;;;;;;;5077909;28;20250;-56
2022/06/19 01:17:49;;;;;;;7.22;3.20;;;;;;;;;;5079028;28;20309;-56
2022/06/19 01:20:16;;;;;;;5.32;2.90;;;;;;;;;;5079124;28;20204;-56
2022/06/19 01:22:47;;;;;;;5.45;3.00;;;;;;;;;;5078709;28;20251;-56
2022/06/19 01:25:18;;;;;;;5.00;2.88;;;;;;;;;;5078853;28;20254;-56
2022/06/19 01:30:33;;;;;;;5.22;3.25;;;;;;;;;;5079129;28;20187;-56
2022/06/19 01:33:01;;;;;;;6.55;3.50;;;;;;;;;;5079380;28;20243;-56
2022/06/19 01:35:30;;;;;;;6.00;3.20;;;;;;;;;;5078587;28;20680;-56
2022/06/19 01:37:59;;;;;;;8.15;4.00;;;;;;;;;;5078563;28;20265;-56
2022/06/19 01:40:29;;;;;;;5.15;3.33;;;;;;;;;;5078636;28;20641;-56
2022/06/19 01:42:57;;;;;;;6.60;3.38;;;;;;;;;;5078532;28;20275;-56
2022/06/19 01:45:25;;;;;;;5.97;3.22;;;;;;;;;;5078480;28;20283;-56
2022/06/19 01:47:52;;;;;;;4.43;3.13;;;;;;;;;;5078706;28;20236;-56
2022/06/19 01:50:23;;;;;;;6.40;3.00;;;;;;;;;;5079425;28;20254;-56
2022/06/19 01:52:54;;;;;;;5.93;3.38;;;;;;;;;;5078765;28;20227;-56
2022/06/19 01:55:22;;;;;;;5.00;3.28;;;;;;;;;;5078593;28;20536;-56
2022/06/19 01:57:53;;;;;;;4.18;3.35;;;;;;;;;;5078728;28;20307;-56
2022/06/19 02:00:23;;;;;;;5.22;2.97;;;;;;;;;;5079064;28;20239;-56
2022/06/19 02:02:53;;;;;;;7.50;3.58;;;;;;;;;;5077574;28;20800;-56
2022/06/19 02:05:20;;;;;;;3.63;2.83;;;;;;;;;;5078376;28;20208;-56
2022/06/19 02:07:48;;;;;;;4.43;3.10;;;;;;;;;;5078267;28;20240;-56
2022/06/19 02:10:16;;;;;;;6.15;3.10;;;;;;;;;;5078803;28;20271;-56
2022/06/19 02:12:43;;;;;;;6.20;3.22;;;;;;;;;;5078712;28;20221;-56
2022/06/19 02:15:13;;;;;;;4.78;3.30;;;;;;;;;;5078439;28;20283;-56
2022/06/19 02:17:43;;;;;;;4.13;3.03;;;;;;;;;;5077491;28;20216;-56
2022/06/19 02:20:12;;;;;;;4.85;3.10;;;;;;;;;;5078229;28;20479;-56
2022/06/19 02:22:39;;;;;;;4.32;2.95;;;;;;;;;;5078096;28;20227;-56
2022/06/19 02:25:07;;;;;;;4.75;3.28;;;;;;;;;;5077996;28;20192;-56
2022/06/19 02:27:36;;;;;;;5.65;3.10;;;;;;;;;;5078159;28;20235;-56
2022/06/19 02:30:05;;;;;;;7.57;3.60;;;;;;;;;;5077921;28;20254;-55
2022/06/19 02:32:36;;;;;;;6.32;3.20;;;;;;;;;;5078347;28;20563;-55
2022/06/19 02:35:04;;;;;;;4.50;2.85;;;;;;;;;;5078378;28;20477;-56
2022/06/19 02:37:33;;;;;;;6.55;3.90;;;;;;;;;;5077153;28;20551;-56
2022/06/19 02:40:05;;;;;;;4.70;3.17;;;;;;;;;;5078036;28;20274;-56
2022/06/19 02:42:34;;;;;;;5.25;3.55;;;;;;;;;;5078158;28;20315;-56
2022/06/19 02:45:02;;;;;;;5.68;3.28;;;;;;;;;;5077596;28;20649;-56
2022/06/19 02:47:32;;;;;;;4.47;2.95;;;;;;;;;;5077904;28;20248;-56
2022/06/19 02:50:01;;;;;;;6.00;3.35;;;;;;;;;;5076885;28;20659;-56
2022/06/19 02:52:28;;;;;;;6.43;3.40;;;;;;;;;;5077274;28;20197;-56
2022/06/19 02:54:56;;;;;;;5.70;3.05;;;;;;;;;;5077825;28;20243;-56
2022/06/19 02:57:25;;;;;;;3.97;3.25;;;;;;;;;;5077887;28;20205;-56
2022/06/19 02:59:53;;;;;;;5.07;3.30;;;;;;;;;;5078098;28;20212;-56
2022/06/19 03:02:21;;;;;;;5.60;3.28;;;;;;;;;;5077883;28;20251;-56
2022/06/19 03:04:50;;;;;;;4.68;2.85;;;;;;;;;;5077752;28;20303;-56
2022/06/19 03:07:19;;;;;;;5.97;3.40;;;;;;;;;;5077688;28;20201;-56
2022/06/19 03:09:46;;;;;;;6.85;3.40;;;;;;;;;;5077914;28;20244;-55
2022/06/19 03:12:14;;;;;;;4.85;3.17;;;;;;;;;;5076634;28;20350;-56
2022/06/19 03:14:41;;;;;;;7.13;3.58;;;;;;;;;;5079608;28;20606;-56
2022/06/19 03:17:09;;;;;;;4.38;3.03;;;;;;;;;;5081445;28;20476;-56
2022/06/19 03:19:36;;;;;;;4.43;3.33;;;;;;;;;;5081179;28;20211;-56
2022/06/19 03:22:04;;;;;;;4.85;3.50;;;;;;;;;;5081433;28;20622;-56
2022/06/19 03:24:33;;;;;;;5.03;3.17;;;;;;;;;;5082132;28;20565;-55
2022/06/19 03:27:00;;;;;;;3.70;3.13;;;;;;;;;;5080284;28;20308;-56
2022/06/19 03:29:28;;;;;;;4.22;3.25;;;;;;;;;;5081569;28;20204;-56
2022/06/19 03:31:55;;;;;;;5.05;3.45;;;;;;;;;;5081474;28;20200;-56
2022/06/19 03:34:23;;;;;;;5.18;3.40;;;;;;;;;;5082137;28;20247;-56
2022/06/19 03:36:51;;;;;;;7.90;3.33;;;;;;;;;;5081346;28;20227;-56
2022/06/19 03:39:19;;;;;;;4.90;3.30;;;;;;;;;;5081416;28;20204;-56
2022/06/19 03:41:47;;;;;;;4.18;3.13;;;;;;;;;;5081671;28;20477;-56
2022/06/19 03:44:15;;;;;;;4.18;3.65;;;;;;;;;;5081591;28;20470;-56
2022/06/19 03:46:42;;;;;;;5.63;3.25;;;;;;;;;;5081056;28;20200;-64
2022/06/19 03:49:10;;;;;;;4.85;3.30;;;;;;;;;;5081714;28;20250;-56
2022/06/19 03:51:38;;;;;;;5.35;3.63;;;;;;;;;;5081186;28;20556;-56
2022/06/19 03:54:07;;;;;;;5.07;3.60;;;;;;;;;;5081208;28;20235;-56
2022/06/19 03:56:34;;;;;;;4.82;3.20;;;;;;;;;;5080616;28;20200;-56
2022/06/19 03:59:07;;;;;;;3.10;2.80;;;;;;;;;;5081567;28;20209;-56
2022/06/19 04:01:36;;;;;;;5.70;3.40;;;;;;;;;;5080750;28;20264;-56
2022/06/19 04:04:05;;;;;;;5.20;3.60;;;;;;;;;;5080885;28;20251;-56
2022/06/19 04:06:34;;;;;;;3.70;2.95;;;;;;;;;;5081023;28;20497;-56
2022/06/19 04:09:01;;;;;;;5.18;3.40;;;;;;;;;;5080719;28;20285;-56
2022/06/19 04:11:29;;;;;;;5.05;3.40;;;;;;;;;;5080827;28;20228;-56
2022/06/19 04:13:57;;;;;;;4.55;3.50;;;;;;;;;;5081167;28;20244;-56
2022/06/19 04:16:27;;;;;;;5.18;3.53;;;;;;;;;;5080245;28;20200;-56
2022/06/19 04:18:56;;;;;;;4.18;3.22;;;;;;;;;;5080868;28;20240;-56
2022/06/19 04:21:24;;;;;;;5.03;3.30;;;;;;;;;;5080497;28;20547;-56
2022/06/19 04:23:53;;;;;;;5.70;3.20;;;;;;;;;;5080465;28;20212;-56
2022/06/19 04:26:21;;;;;;;4.30;3.35;;;;;;;;;;5079390;28;20262;-56
2022/06/19 04:28:49;;;;;;;4.78;3.38;;;;;;;;;;5080802;28;20298;-56
2022/06/19 04:31:17;;;;;;;3.83;3.00;;;;;;;;;;5080816;28;20211;-56
2022/06/19 04:33:46;;;;;;;5.45;3.30;;;;;;;;;;5080865;28;20571;-56
2022/06/19 04:36:19;;;;;;;7.63;3.30;;;;;;;;;;5080464;28;20232;-56
2022/06/19 04:38:49;;;;;;;5.85;3.60;;;;;;;;;;5081093;28;20529;-56
2022/06/19 04:41:17;;;;;;;4.07;3.17;;;;;;;;;;5080395;28;20204;-56
2022/06/19 04:43:44;;;;;;;3.40;3.10;;;;;;;;;;5080537;28;20263;-56
2022/06/19 04:46:14;;;;;;;4.38;3.45;;;;;;;;;;5079973;28;20204;-56
2022/06/19 04:48:41;;;;;;;5.70;3.10;;;;;;;;;;5080141;28;20215;-56
2022/06/19 04:51:10;;;;;;;5.20;3.47;;;;;;;;;;5080061;28;20212;-56
2022/06/19 04:53:39;;;;;;;4.65;3.05;;;;;;;;;;5080096;28;20255;-56
2022/06/19 04:56:07;;;;;;;4.57;3.50;;;;;;;;;;5080023;28;20490;-56
2022/06/19 04:58:35;;;;;;;5.40;3.10;;;;;;;;;;5080067;28;20264;-56
2022/06/19 05:01:05;;;;;;;4.68;3.45;;;;;;;;;;5079810;28;20266;-56
2022/06/19 05:03:32;;;;;;;5.55;3.45;;;;;;;;;;5080239;28;20716;-56
2022/06/19 05:06:00;;;;;;;4.15;3.20;;;;;;;;;;5079653;28;20285;-56
2022/06/19 05:08:29;;;;;;;5.10;3.30;;;;;;;;;;5079729;28;20205;-56
2022/06/19 05:10:57;;;;;;;5.45;3.60;;;;;;;;;;5079293;28;20305;-57
2022/06/19 05:13:25;;;;;;;5.10;3.65;;;;;;;;;;5079785;28;20247;-56
2022/06/19 05:16:02;;;;;;;3.80;3.38;;;;;;;;;;5078979;28;20234;-56
2022/06/19 05:18:30;;;;;;;3.80;3.45;;;;;;;;;;5079018;28;20587;-56
2022/06/19 05:20:57;;;;;;;4.53;3.33;;;;;;;;;;5079678;28;20571;-56
2022/06/19 05:23:25;;;;;;;5.05;3.65;;;;;;;;;;5079717;28;20278;-56
2022/06/19 05:25:58;;;;;;;6.35;3.90;;;;;;;;;;5079508;28;20289;-56
2022/06/19 05:28:26;;;;;;;5.22;3.40;;;;;;;;;;5079253;28;20204;-56
2022/06/19 05:30:53;;;;;;;4.00;3.55;;;;;;;;;;5079623;28;20208;-56
2022/06/19 05:33:21;;;;;;;5.72;4.07;;;;;;;;;;5079126;28;20559;-56
2022/06/19 05:35:48;;;;;;;5.13;3.90;;;;;;;;;;5079415;28;20197;-56
2022/06/19 05:38:16;;;;;;;5.07;3.65;;;;;;;;;;5078823;28;20545;-56
2022/06/19 05:40:43;;;;;;;7.20;3.70;;;;;;;;;;5079425;28;20243;-56
2022/06/19 05:43:12;;;;;;;6.15;3.60;;;;;;;;;;5079460;28;20290;-56
2022/06/19 05:45:40;;;;;;;7.47;3.60;;;;;;;;;;5078903;28;20204;-56
2022/06/19 05:48:07;;;;;;;5.40;3.80;;;;;;;;;;5079077;28;20265;-56
2022/06/19 05:50:35;;;;;;;5.47;3.60;;;;;;;;;;5079429;28;20496;-56
2022/06/19 05:53:02;;;;;;;6.13;3.63;;;;;;;;;;5078913;28;20232;-56
2022/06/19 05:55:30;;;;;;;6.03;3.55;;;;;;;;;;5078371;28;20204;-56
2022/06/19 05:57:57;;;;;;;5.13;3.50;;;;;;;;;;5078740;28;20547;-56
2022/06/19 06:00:26;;;;;;;4.93;3.60;;;;;;;;;;5078996;28;20204;-56
2022/06/19 06:02:54;;;;;;;5.47;3.90;;;;;;;;;;5078818;28;20650;-56
2022/06/19 06:05:21;;;;;;;7.25;3.97;;;;;;;;;;5078371;28;20570;-56
2022/06/19 06:07:49;;;;;;;5.57;3.92;;;;;;;;;;5078341;28;20243;-57
2022/06/19 06:10:17;;;;;;;5.90;3.60;;;;;;;;;;5077732;28;20205;-56
2022/06/19 06:12:44;;;;;;;4.22;3.83;;;;;;;;;;5077632;28;20256;-56
2022/06/19 06:15:12;;;;;;;6.07;3.55;;;;;;;;;;5077207;28;20565;-56
2022/06/19 06:17:43;;;;;;;4.97;3.83;;;;;;;;;;5077849;28;20208;-56
2022/06/19 06:20:11;;;;;;;4.75;3.67;;;;;;;;;;5078265;28;20259;-56
2022/06/19 06:22:38;;;;;;;6.15;3.75;;;;;;;;;;5077832;28;20247;-56
2022/06/19 06:25:07;;;;;;;6.10;3.80;;;;;;;;;;5077591;28;20242;-56
2022/06/19 06:27:34;;;;;;;7.30;3.80;;;;;;;;;;5078035;28;20205;-56
2022/06/19 06:30:02;;;;;;;9.60;3.20;;;;;;;;;;5077653;28;20303;-56
2022/06/19 06:32:29;;;;;;;6.00;3.30;;;;;;;;;;5078406;28;20240;-56
2022/06/19 06:34:58;;;;;;;7.43;3.72;;;;;;;;;;5077749;28;20204;-56
2022/06/19 06:37:26;;;;;;;7.78;3.90;;;;;;;;;;5077233;28;20258;-56
2022/06/19 06:39:53;;;;;;;6.53;3.72;;;;;;;;;;5077425;28;20261;-56
2022/06/19 06:42:21;;;;;;;6.70;3.70;;;;;;;;;;5077717;28;20243;-56
2022/06/19 06:44:49;;;;;;;6.68;4.35;;;;;;;;;;5076954;28;20575;-56
2022/06/19 06:47:19;;;;;;;3.83;3.40;;;;;;;;;;5077802;28;20205;-56
2022/06/19 06:49:46;;;;;;;7.93;3.95;;;;;;;;;;5076965;28;20200;-56
2022/06/19 06:52:15;;;;;;;8.25;3.20;;;;;;;;;;5078184;28;20234;-56
2022/06/19 06:54:43;;;;;;;6.43;3.38;;;;;;;;;;5077058;28;20573;-56
2022/06/19 06:57:10;;;;;;;6.05;4.15;;;;;;;;;;5076488;28;20231;-56
2022/06/19 06:59:38;;;;;;;7.00;3.58;;;;;;;;;;5077919;28;20267;-56
2022/06/19 07:02:06;;;;;;;7.05;3.20;;;;;;;;;;5077806;28;20281;-56
2022/06/19 07:04:34;;;;;;;6.07;3.50;;;;;;;;;;5077446;28;20228;-56
2022/06/19 07:07:02;;;;;;;7.55;3.47;;;;;;;;;;5077239;28;20251;-56
2022/06/19 07:09:31;;;;;;;5.70;3.60;;;;;;;;;;5077350;28;20248;-56
2022/06/19 07:12:02;;;;;;;6.93;3.75;;;;;;;;;;5076588;28;20276;-56
2022/06/19 07:14:30;;;;;;;7.15;3.83;;;;;;;;;;5077004;28;20626;-56
2022/06/19 07:16:57;;;;;;;8.70;3.53;;;;;;;;;;5076442;28;20296;-56
2022/06/19 07:19:25;;;;;;;7.03;3.60;;;;;;;;;;5076752;28;20204;-56
2022/06/19 07:21:53;;;;;;;8.55;4.07;;;;;;;;;;5076786;28;20204;-56
2022/06/19 07:24:20;;;;;;;7.38;3.53;;;;;;;;;;5076136;28;20289;-56
2022/06/19 07:26:49;;;;;;;6.90;3.70;;;;;;;;;;5076112;28;20276;-56
2022/06/19 07:29:17;;;;;;;6.95;3.30;;;;;;;;;;5076405;28;20521;-56
2022/06/19 07:31:44;;;;;;;7.95;3.65;;;;;;;;;;5076517;28;20215;-56
2022/06/19 07:34:12;;;;;;;6.82;3.40;;;;;;;;;;5075818;28;20200;-56
2022/06/19 07:36:39;;;;;;;9.13;3.67;;;;;;;;;;5075396;28;20576;-56
2022/06/19 07:39:07;;;;;;;6.32;3.50;;;;;;;;;;5075873;28;20231;-56
2022/06/19 07:41:34;;;;;;;8.20;3.60;;;;;;;;;;5075857;28;20240;-56
2022/06/19 07:44:04;;;;;;;7.88;3.42;;;;;;;;;;5076132;28;20224;-56
2022/06/19 07:46:31;;;;;;;8.07;3.53;;;;;;;;;;5056447;28;20205;-56
2022/06/19 07:51:59;;;;;;;10.93;3.65;;;;;;;;;;4994251;28;20468;-56
2022/06/19 07:54:26;;;;;;;10.93;3.72;;;;;;;;;;4995175;28;20214;-56
2022/06/19 07:56:54;;;;;;;19.73;3.55;;;;;;;;;;5022031;28;20205;-56
2022/06/19 07:59:23;;;;;;;10.85;3.80;;;;;;;;;;5055875;28;20208;-56
2022/06/19 08:01:50;;;;;;;13.93;3.70;;;;;;;;;;5057506;28;20767;-56
2022/06/19 08:04:18;;;;;;;11.52;3.40;;;;;;;;;;5060954;28;20282;-56
2022/06/19 08:06:45;;;;;;;10.30;3.38;;;;;;;;;;5079671;28;20298;-56
2022/06/19 08:09:13;;;;;;;13.43;3.50;;;;;;;;;;5079413;28;20240;-56
2022/06/19 08:11:41;;;;;;;8.77;3.20;;;;;;;;;;5078894;28;20309;-56
2022/06/19 08:14:08;;;;;;;11.10;3.20;;;;;;;;;;5079331;28;20211;-56
2022/06/19 08:16:37;;;;;;;9.52;3.47;;;;;;;;;;5063171;28;20262;-57
2022/06/19 08:19:05;;;;;;;10.95;3.63;;;;;;;;;;5079360;28;20270;-56
2022/06/19 08:21:32;;;;;;;9.40;3.40;;;;;;;;;;5079204;28;20662;-56
2022/06/19 08:24:00;;;;;;;8.25;3.30;;;;;;;;;;5079333;28;20319;-56
2022/06/19 08:26:27;;;;;;;9.23;3.63;;;;;;;;;;5079694;28;20240;-56
2022/06/19 08:28:57;;;;;;;9.73;3.50;;;;;;;;;;5079728;28;20251;-56
2022/06/19 08:31:25;;;;;;;10.88;4.00;;;;;;;;;;5079164;28;20208;-56
2022/06/19 08:33:54;;;;;;;10.60;3.35;;;;;;;;;;5078560;28;20196;-56
2022/06/19 08:36:22;;;;;;;7.90;3.63;;;;;;;;;;5079427;28;20201;-56
2022/06/19 08:38:53;;;;;;;9.25;3.40;;;;;;;;;;5079542;28;20535;-56
2022/06/19 08:41:44;;;;;;;6.65;3.65;;;;;;;;;;5078611;28;20216;-56
2022/06/19 08:44:28;;;;;;;11.70;3.45;;;;;;;;;;5059377;28;20273;-56
2022/06/19 08:47:01;;;;;;;15.02;4.10;;;;;;;;;;5059282;28;20252;-56
2022/06/19 08:49:37;;;;;;;9.88;3.75;;;;;;;;;;5059044;28;20209;-56
2022/06/19 08:52:13;;;;;;;10.45;4.07;;;;;;;;;;5058376;28;20543;-56
2022/06/19 08:54:47;;;;;;;12.38;4.00;;;;;;;;;;5062522;28;20286;-56
2022/06/19 08:57:20;;;;;;;12.02;3.75;;;;;;;;;;5078844;28;20540;-56
2022/06/19 08:59:56;;;;;;;15.98;4.18;;;;;;;;;;5079020;28;20637;-56
2022/06/19 09:02:30;;;;;;;13.02;3.92;;;;;;;;;;5078668;28;20668;-56
2022/06/19 09:07:56;;;;;;;12.85;4.10;;;;;;;;;;5079040;28;20738;-56
2022/06/19 09:10:28;;;;;;;10.68;4.15;;;;;;;;;;5079070;28;20610;-56
2022/06/19 09:13:04;;;;;;;13.07;4.05;;;;;;;;;;5077838;28;20289;-56
2022/06/19 09:15:35;;;;;;;12.80;4.00;;;;;;;;;;5078368;28;20227;-56
2022/06/19 09:18:03;;;;;;;17.75;3.92;;;;;;;;;;5077836;28;20283;-57
2022/06/19 09:20:41;;;;;;;11.00;3.22;;;;;;;;;;5078371;28;20299;-56
2022/06/19 09:23:20;;;;;;;12.00;3.85;;;;;;;;;;5077590;28;20204;-56
2022/06/19 09:25:52;;;;;;;13.55;4.45;;;;;;;;;;5078042;28;20220;-56
2022/06/19 09:28:22;;;;;;;11.13;4.03;;;;;;;;;;5078534;28;20571;-56
2022/06/19 09:30:51;;;;;;;11.82;4.07;;;;;;;;;;5077698;28;20233;-56
2022/06/19 09:33:22;;;;;;;9.45;3.95;;;;;;;;;;5076964;28;20572;-56
2022/06/19 09:35:53;;;;;;;11.57;3.90;;;;;;;;;;5077127;28;20208;-56
2022/06/19 09:38:23;;;;;;;10.63;3.97;;;;;;;;;;5077301;28;20535;-56
2022/06/19 09:40:54;;;;;;;10.50;4.35;;;;;;;;;;5077299;28;20235;-56
2022/06/19 09:43:24;;;;;;;13.15;4.07;;;;;;;;;;5077062;28;20277;-57
2022/06/19 09:45:55;;;;;;;12.82;4.28;;;;;;;;;;5076663;28;20196;-56
2022/06/19 09:48:23;;;;;;;9.23;3.70;;;;;;;;;;5076614;28;20269;-56
2022/06/19 09:50:55;;;;;;;9.60;3.63;;;;;;;;;;5076784;28;20208;-56
2022/06/19 09:53:27;;;;;;;11.82;4.38;;;;;;;;;;5076699;28;20224;-56
2022/06/19 09:55:57;;;;;;;14.07;4.50;;;;;;;;;;5076230;28;20606;-56
2022/06/19 09:58:27;;;;;;;10.65;3.70;;;;;;;;;;5076654;28;20258;-56
2022/06/19 10:00:56;;;;;;;12.80;4.35;;;;;;;;;;5076912;28;20209;-57
2022/06/19 10:03:26;;;;;;;9.95;4.15;;;;;;;;;;5076468;28;20330;-56
2022/06/19 10:05:58;;;;;;;9.73;4.30;;;;;;;;;;5076755;28;20203;-56
2022/06/19 10:08:27;;;;;;;11.13;4.63;;;;;;;;;;5076674;28;20204;-56
2022/06/19 10:10:58;;;;;;;8.73;4.78;;;;;;;;;;5076706;28;20240;-56
2022/06/19 10:13:30;;;;;;;11.02;4.95;;;;;;;;;;5076569;28;20197;-57
2022/06/19 10:15:58;;;;;;;9.48;4.90;;;;;;;;;;5076039;28;20510;-56
2022/06/19 10:18:28;;;;;;;11.50;4.43;;;;;;;;;;5076748;28;20219;-56
2022/06/19 10:20:59;;;;;;;10.00;4.90;;;;;;;;;;5076852;28;20204;-56
2022/06/19 10:23:31;;;;;;;8.85;4.85;;;;;;;;;;5074632;28;20204;-56
2022/06/19 10:26:03;;;;;;;11.82;4.70;;;;;;;;;;5076033;28;20250;-56
2022/06/19 10:28:40;;;;;;;9.63;5.03;;;;;;;;;;5075985;28;20212;-56
2022/06/19 10:31:13;;;;;;;9.70;5.13;;;;;;;;;;5075389;28;20269;-56
2022/06/19 10:33:47;;;;;;;10.48;5.13;;;;;;;;;;5076471;28;20530;-56
2022/06/19 10:36:20;;;;;;;7.13;4.78;;;;;;;;;;5075825;28;20465;-56
2022/06/19 10:38:57;;;;;;;8.32;5.53;;;;;;;;;;5075914;28;20273;-56
2022/06/19 10:44:18;;;;;;;11.07;5.55;;;;;;;;;;5075107;28;20235;-56
2022/06/19 10:46:49;;;;;;;8.32;5.05;;;;;;;;;;5075665;28;20212;-56
2022/06/19 10:49:20;;;;;;;8.55;5.55;;;;;;;;;;5075551;28;20204;-57
2022/06/19 10:51:56;;;;;;;9.15;5.70;;;;;;;;;;5075358;28;20550;-57
2022/06/19 10:54:32;;;;;;;9.52;5.30;;;;;;;;;;5075949;28;20199;-57
2022/06/19 10:57:03;;;;;;;13.10;5.63;;;;;;;;;;5076115;28;20208;-56
2022/06/19 10:59:30;;;;;;;9.25;5.20;;;;;;;;;;5075109;28;20287;-56
2022/06/19 11:04:55;;;;;;;9.10;5.47;;;;;;;;;;5074713;28;20227;-56
2022/06/19 11:07:26;;;;;;;7.97;4.93;;;;;;;;;;5075893;28;20199;-56
2022/06/19 11:09:55;;;;;;;8.35;5.53;;;;;;;;;;5075421;28;20262;-56
2022/06/19 11:12:25;;;;;;;8.20;5.43;;;;;;;;;;5074369;28;20259;-56
2022/06/19 11:14:55;;;;;;;9.15;5.30;;;;;;;;;;5074019;28;20295;-56
2022/06/19 11:17:31;;;;;;;7.97;5.63;;;;;;;;;;5074835;28;20200;-56
2022/06/19 11:19:59;;;;;;;8.70;5.15;;;;;;;;;;5075101;28;20232;-56
2022/06/19 11:22:37;;;;;;;10.68;5.82;;;;;;;;;;5074927;28;20242;-56
2022/06/19 11:25:26;;;;;;;9.30;5.47;;;;;;;;;;5071626;28;20223;-56
2022/06/19 11:27:54;;;;;;;9.88;6.10;;;;;;;;;;5075574;28;20204;-56
2022/06/19 11:30:28;;;;;;;9.90;6.07;;;;;;;;;;5074389;28;20200;-57
2022/06/19 11:32:56;;;;;;;8.95;5.53;;;;;;;;;;5074736;28;20211;-56
2022/06/19 11:35:24;;;;;;;10.32;6.10;;;;;;;;;;5074046;28;20237;-56
2022/06/19 11:37:56;;;;;;;9.20;6.15;;;;;;;;;;5077241;28;20763;-56
2022/06/19 11:40:29;;;;;;;10.63;6.13;;;;;;;;;;5078225;28;20199;-56
2022/06/19 11:42:59;;;;;;;9.52;6.03;;;;;;;;;;5078255;28;20258;-56
2022/06/19 11:45:29;;;;;;;9.07;6.13;;;;;;;;;;5077910;28;20752;-56
2022/06/19 11:48:10;;;;;;;8.05;6.20;;;;;;;;;;5078710;28;20579;-56
2022/06/19 11:50:48;;;;;;;7.75;6.07;;;;;;;;;;5078655;28;20615;-56
2022/06/19 11:53:27;;;;;;;8.73;6.10;;;;;;;;;;5077616;28;20231;-56
2022/06/19 11:56:13;;;;;;;10.70;6.57;;;;;;;;;;5075890;28;20249;-56
2022/06/19 11:58:42;;;;;;;9.68;6.40;;;;;;;;;;5077541;28;20205;-56
2022/06/19 12:01:10;;;;;;;10.05;6.65;;;;;;;;;;5077507;28;20227;-56
2022/06/19 12:03:46;;;;;;;9.52;6.20;;;;;;;;;;5076774;28;20193;-56
2022/06/19 12:06:15;;;;;;;10.20;7.07;;;;;;;;;;5077570;28;20556;-56
2022/06/19 12:08:50;;;;;;;9.98;6.30;;;;;;;;;;5077707;28;20295;-56
2022/06/19 12:11:35;;;;;;;10.48;6.80;;;;;;;;;;5076561;28;20719;-56
2022/06/19 12:14:03;;;;;;;8.45;6.25;;;;;;;;;;5077346;28;20196;-56
2022/06/19 12:16:32;;;;;;;10.43;6.97;;;;;;;;;;5077745;28;20204;-56
2022/06/19 12:19:14;;;;;;;10.15;6.50;;;;;;;;;;5077419;28;20247;-56
2022/06/19 12:21:48;;;;;;;11.60;6.60;;;;;;;;;;5076783;28;20262;-56
2022/06/19 12:24:19;;;;;;;12.50;6.90;;;;;;;;;;5076602;28;20215;-56
2022/06/19 12:26:48;;;;;;;11.40;6.65;;;;;;;;;;5077292;28;20265;-56
2022/06/19 12:29:27;;;;;;;12.13;7.25;;;;;;;;;;5076685;28;20211;-56
2022/06/19 12:31:56;;;;;;;11.02;6.90;;;;;;;;;;5077376;28;20270;-56
2022/06/19 12:34:29;;;;;;;9.32;6.63;;;;;;;;;;5076670;28;20197;-56
2022/06/19 12:36:57;;;;;;;13.07;6.72;;;;;;;;;;5076077;28;20218;-56
2022/06/19 12:39:29;;;;;;;9.73;7.00;;;;;;;;;;5076680;28;20741;-56
2022/06/19 12:41:59;;;;;;;11.75;7.22;;;;;;;;;;5077531;28;20499;-56
2022/06/19 12:44:33;;;;;;;11.82;7.22;;;;;;;;;;5076321;28;20242;-56
2022/06/19 12:47:07;;;;;;;9.60;6.97;;;;;;;;;;5075691;28;20215;-56
2022/06/19 12:49:45;;;;;;;11.80;7.15;;;;;;;;;;5077300;28;20209;-57
2022/06/19 12:52:19;;;;;;;11.05;6.80;;;;;;;;;;5077345;28;20239;-56
2022/06/19 12:55:01;;;;;;;8.15;6.63;;;;;;;;;;5076356;28;20569;-56
2022/06/19 12:57:37;;;;;;;9.00;6.90;;;;;;;;;;5076263;28;20232;-56
2022/06/19 13:00:09;;;;;;;8.63;6.50;;;;;;;;;;5077296;28;20212;-57
2022/06/19 13:02:49;;;;;;;11.68;6.90;;;;;;;;;;5076296;28;20204;-57
2022/06/19 13:05:20;;;;;;;10.90;6.70;;;;;;;;;;5076405;28;20267;-58
2022/06/19 13:07:53;;;;;;;10.30;7.07;;;;;;;;;;5076415;28;20204;-58
2022/06/19 13:10:37;;;;;;;10.48;6.95;;;;;;;;;;5075743;28;20212;-58
2022/06/19 13:13:10;;;;;;;12.05;6.70;;;;;;;;;;5075744;28;20584;-58
2022/06/19 13:15:47;;;;;;;10.27;7.30;;;;;;;;;;5076267;28;20524;-58
2022/06/19 13:18:17;;;;;;;12.90;6.72;;;;;;;;;;5076060;28;20201;-57
2022/06/19 13:20:47;;;;;;;9.27;7.13;;;;;;;;;;5075802;28;20243;-58
2022/06/19 13:23:19;;;;;;;9.98;7.38;;;;;;;;;;5076408;28;20508;-57
2022/06/19 13:26:04;;;;;;;11.70;7.63;;;;;;;;;;5075866;28;20251;-57
2022/06/19 13:28:36;;;;;;;11.10;7.68;;;;;;;;;;5076254;28;20200;-58
2022/06/19 13:31:12;;;;;;;11.73;7.13;;;;;;;;;;5076313;28;20629;-58
2022/06/19 13:33:50;;;;;;;17.33;8.27;;;;;;;;;;5074544;28;20196;-58
2022/06/19 13:36:20;;;;;;;11.23;7.05;;;;;;;;;;5075609;28;20770;-58
2022/06/19 13:38:56;;;;;;;13.35;7.45;;;;;;;;;;5075116;28;20220;-58
2022/06/19 13:41:30;;;;;;;11.80;7.72;;;;;;;;;;5075379;28;20299;-58
2022/06/19 13:44:03;;;;;;;11.88;6.97;;;;;;;;;;5075697;28;20283;-57
2022/06/19 13:46:36;;;;;;;9.85;6.60;;;;;;;;;;5075718;28;20256;-57
2022/06/19 13:49:09;;;;;;;11.15;6.55;;;;;;;;;;5075078;28;20266;-57
2022/06/19 13:51:39;;;;;;;9.80;6.95;;;;;;;;;;5075724;28;20200;-57
2022/06/19 13:54:10;;;;;;;14.10;7.43;;;;;;;;;;5074810;28;20231;-58
2022/06/19 13:56:43;;;;;;;10.60;7.20;;;;;;;;;;5074014;28;20592;-58
2022/06/19 13:59:30;;;;;;;15.15;7.65;;;;;;;;;;5074355;28;20215;-58
2022/06/19 14:02:01;;;;;;;11.10;7.18;;;;;;;;;;5074206;28;20227;-58
2022/06/19 14:04:50;;;;;;;14.68;8.05;;;;;;;;;;5074160;28;20593;-58
2022/06/19 14:07:42;;;;;;;10.57;6.80;;;;;;;;;;5073724;28;20568;-58
2022/06/19 14:10:14;;;;;;;8.23;6.65;;;;;;;;;;5073591;28;20232;-58
2022/06/19 14:12:47;;;;;;;14.27;7.25;;;;;;;;;;5073983;28;20654;-57
2022/06/19 14:15:20;;;;;;;11.13;6.80;;;;;;;;;;5073473;28;20200;-58
2022/06/19 14:17:52;;;;;;;11.38;7.13;;;;;;;;;;5074409;28;20600;-58
2022/06/19 14:20:25;;;;;;;9.93;6.88;;;;;;;;;;5074901;28;20234;-56
2022/06/19 14:23:00;;;;;;;12.80;6.78;;;;;;;;;;5074599;28;20511;-56
2022/06/19 14:25:32;;;;;;;9.73;6.32;;;;;;;;;;5073633;28;20328;-56
2022/06/19 14:28:07;;;;;;;13.50;7.45;;;;;;;;;;5073849;28;20244;-56
2022/06/19 14:30:39;;;;;;;11.20;6.80;;;;;;;;;;5074100;28;20204;-56
2022/06/19 14:33:27;;;;;;;11.75;7.10;;;;;;;;;;5074354;28;20572;-56
2022/06/19 14:36:04;;;;;;;14.82;7.63;;;;;;;;;;5074308;28;20223;-58
2022/06/19 14:38:33;;;;;;;10.60;6.53;;;;;;;;;;5075148;28;20246;-56
2022/06/19 14:41:02;;;;;;;11.18;7.43;;;;;;;;;;5074185;28;20218;-56
2022/06/19 14:43:33;;;;;;;12.10;7.30;;;;;;;;;;5075487;28;20219;-56
2022/06/19 14:46:16;;;;;;;10.25;6.85;;;;;;;;;;5074040;28;20228;-56
2022/06/19 14:48:47;;;;;;;12.80;7.32;;;;;;;;;;5072178;28;20204;-56
2022/06/19 14:51:21;;;;;;;13.52;7.50;;;;;;;;;;5074889;28;20520;-56
2022/06/19 14:54:00;;;;;;;10.68;7.20;;;;;;;;;;5074211;28;20709;-56
2022/06/19 14:56:47;;;;;;;11.35;7.35;;;;;;;;;;5074910;28;20215;-56
2022/06/19 14:59:20;;;;;;;11.73;8.27;;;;;;;;;;5073766;28;20212;-56
2022/06/19 15:01:51;;;;;;;10.30;7.07;;;;;;;;;;5075016;28;20353;-56
2022/06/19 15:04:19;;;;;;;10.50;7.07;;;;;;;;;;5074882;28;20236;-56
2022/06/19 15:06:49;;;;;;;12.25;7.50;;;;;;;;;;5074993;28;20224;-56
2022/06/19 15:09:22;;;;;;;9.85;6.88;;;;;;;;;;5074716;28;20240;-56
2022/06/19 15:11:51;;;;;;;12.48;8.18;;;;;;;;;;5074980;28;20667;-56